Maersk Constellation — WRYJ — position and weather

sailwx.info

Track history (hours):
 
Tides and Currents Weather Stations Pressure Air Temp Water Temp Dewpoint Dewpoint Depression Visibility Wind Speed Wind Dir Waves Ship Positions

Maersk Constellation

Owner: MAERSK LINES LIMITED, Norfolk, VA. More information available from US FCC via Universal Licensing System and Coast Guard Vessel Documentation Center.

Last reported at 2018-Feb-16 22:21 UTC. Time now 2018-Feb-22 09:21 UTC.
Position N 16°24' W 061°53'.

Type: Cargo ship. MMSI: 367477000.

Date/timePositionNaut miles runAvg speedWind from/ knotsBaromVisibWave heightAir tempDewpointWater temp
2018-Feb-16 22:21N 16°24' W 061°53'3 8.8
2018-Feb-16 22:00N 16°26' W 061°55'5 8.7
2018-Feb-16 21:28N 16°29' W 061°59'4 8.7
2018-Feb-16 21:00N 16°31' W 062°02'4 8.8
2018-Feb-16 20:31N 16°34' W 062°06'4 8.3
2018-Feb-16 20:00N 16°38' W 062°08'11 3.2
2018-Feb-16 16:39N 16°45' W 062°16'2 8.0
2018-Feb-16 16:25N 16°46' W 062°18'3 7.8
2018-Feb-16 16:00N 16°48' W 062°21'  
Track history (hours):
 
Tides and Currents Weather Stations Pressure Air Temp Water Temp Dewpoint Dewpoint Depression Visibility Wind Speed Wind Dir Waves Ship Positions

Maersk Constellation

Owner: MAERSK LINES LIMITED, Norfolk, VA. More information available from US FCC via Universal Licensing System and Coast Guard Vessel Documentation Center.

Last reported at 2018-Feb-16 22:21 UTC. Time now 2018-Feb-22 09:21 UTC.
Position N 16°24' W 061°53'.

Type: Cargo ship. MMSI: 367477000.

Date/timePositionNaut miles runAvg speedWind from/ knotsBaromVisibWave heightAir tempDewpointWater temp
2018-Feb-16 22:21N 16°24' W 061°53'3 8.8
2018-Feb-16 22:00N 16°26' W 061°55'5 8.7
2018-Feb-16 21:28N 16°29' W 061°59'4 8.7
2018-Feb-16 21:00N 16°31' W 062°02'4 8.8
2018-Feb-16 20:31N 16°34' W 062°06'4 8.3
2018-Feb-16 20:00N 16°38' W 062°08'11 3.2
2018-Feb-16 16:39N 16°45' W 062°16'2 8.0
2018-Feb-16 16:25N 16°46' W 062°18'3 7.8
2018-Feb-16 16:00N 16°48' W 062°21'  

Dump ship's entire track history